Huvudsida
METAR-TAF:

METAR-TAF

Flygplatser :

Gällivare Lapland Airport

Gällivare, Sverige

latitud: 67-09N, longitud: 020-39E, höjd: 359 m

Aktuellt väderrapport

Denna rapport gjordes för 28 minuter sedan, klockan 15:20 UTC
Vind 7 kt från sydost, varierande mellan ost/sydost och syd
Temperatur 15°C
Fuktighet 82%
Tryck 1008 hPa
Sikt 10 km eller mer
Brutna moln på en höjd av 2300 ft
Mulet på en höjd av 4100 ft
lätt regn

METAR: ESNG 161520Z 13007KT 110V180 9999 -RA BKN023 OVC041 15/12 Q1008

Tid: 17:48 (15:48 UTC)

Väderprognos

Denna rapport gjordes för 1 timme och 18 minuter sedan, klockan 14:30 UTC
Prognos gäller från 16 kl. 15 UTC till 16 kl. 18 UTC
Vind 8 kt från syd
Sikt 10 km eller mer
Spridda moln på en höjd av 2500 ft
Brutna moln på en höjd av 8000 ft

TAF: ESNG 161430Z 1615/1618 17008KT 9999 SCT025 BKN080

Aktuella väderrapporter och prognoser från 4000 flygplatser (METAR- och TAF-rapporter).

De tillgängliga stationerna syns som gula och röda prickar på kartan.

För musen över prickarna för att se namnen på stationerna.

Klicka sedan för att få väderrapporter och prognoser.

För att ändra kartan: Klicka på de gröna knapparna med ett svart kors på för att zooma in; den gröna knappen med ett streck på för att zooma ut; eller på de gröna pilarna för angränsande kartor.


METAR-TAF: